createdAt,value
2018-12-20T00:04:44.183Z,19.69
2018-12-20T00:10:37.600Z,17.19
2018-12-20T00:16:32.741Z,19.13
2018-12-20T00:22:27.616Z,13.08
2018-12-20T00:28:22.598Z,13.83
2018-12-20T00:34:17.617Z,15.27
2018-12-20T00:40:12.614Z,13.05
2018-12-20T00:46:07.714Z,13.96
2018-12-20T00:52:02.638Z,13.04
2018-12-20T00:57:57.711Z,14.89
2018-12-20T01:03:52.616Z,15.7
2018-12-20T01:09:47.796Z,13.83
2018-12-20T01:15:42.702Z,17.4
2018-12-20T01:21:37.618Z,15.07
2018-12-20T01:27:32.626Z,15.89
2018-12-20T01:33:27.655Z,15.88
2018-12-20T01:39:22.696Z,14.59
2018-12-20T01:45:17.695Z,14.75
2018-12-20T01:51:12.726Z,17.42
2018-12-20T01:57:07.635Z,19.2
2018-12-20T02:03:02.786Z,18.23
2018-12-20T02:08:57.683Z,14.28
2018-12-20T02:14:52.860Z,13.62
2018-12-20T02:20:47.684Z,12.64
2018-12-20T02:26:42.824Z,15.83
2018-12-20T02:32:37.669Z,11.53
2018-12-20T02:38:32.695Z,12.57
2018-12-20T02:44:27.673Z,13.7
2018-12-20T02:50:22.690Z,12.3
2018-12-20T02:56:17.925Z,13.3
2018-12-20T03:02:12.862Z,12.44
2018-12-20T03:08:07.709Z,10.52
2018-12-20T03:14:02.763Z,11.22
2018-12-20T03:19:57.878Z,9.56
2018-12-20T03:25:52.730Z,12.56
2018-12-20T03:31:47.715Z,11.9
2018-12-20T03:37:43.042Z,12.25
2018-12-20T03:43:37.692Z,11.15
2018-12-20T03:49:33.071Z,13.66
2018-12-20T03:55:27.814Z,11.5
2018-12-20T04:01:22.743Z,11.93
2018-12-20T04:07:17.714Z,14.63
2018-12-20T04:13:12.965Z,11.42
2018-12-20T04:19:07.821Z,13.08
2018-12-20T04:25:02.732Z,14.6
2018-12-20T04:30:57.823Z,10.38
2018-12-20T04:36:52.771Z,9.86
2018-12-20T04:42:47.934Z,12.29
2018-12-20T04:48:42.762Z,10.7
2018-12-20T04:54:37.763Z,11.44
2018-12-20T05:00:32.985Z,50.69
2018-12-20T05:06:27.791Z,12.53
2018-12-20T05:12:23.098Z,11.66
2018-12-20T05:18:17.760Z,9.13
2018-12-20T05:24:12.776Z,8.13
2018-12-20T05:30:07.809Z,13.63
2018-12-20T05:36:02.876Z,13.78
2018-12-20T05:41:57.794Z,13.08
2018-12-20T05:47:52.896Z,13.46
2018-12-20T05:53:47.983Z,15.2
2018-12-20T05:59:42.786Z,14.12
2018-12-20T06:05:37.920Z,14.27
2018-12-20T06:11:32.788Z,16.81
2018-12-20T06:17:28.017Z,16.18
2018-12-20T06:23:22.785Z,13.97
2018-12-20T06:29:17.855Z,18.65
2018-12-20T06:35:12.857Z,19.12
2018-12-20T06:41:07.842Z,17.29
2018-12-20T06:47:02.830Z,20.57
2018-12-20T06:52:57.789Z,20.43
2018-12-20T06:58:52.815Z,22.79
2018-12-20T07:04:47.806Z,22.85
2018-12-20T07:10:42.820Z,22.23
2018-12-20T07:16:37.853Z,21.08
2018-12-20T07:22:32.809Z,19.13
2018-12-20T07:28:27.834Z,24.65
2018-12-20T07:34:22.834Z,66.8
2018-12-20T07:40:17.881Z,26.41
2018-12-20T07:46:12.810Z,23.2
2018-12-20T07:52:07.849Z,19.4
2018-12-20T07:58:02.864Z,17.37
2018-12-20T08:03:57.893Z,21.26
2018-12-20T08:09:52.845Z,16.47
2018-12-20T08:15:47.866Z,24.94
2018-12-20T08:21:42.899Z,22.31
2018-12-20T08:27:37.860Z,19.71
2018-12-20T08:33:32.858Z,24.45
2018-12-20T08:39:27.857Z,15.94
2018-12-20T08:45:22.896Z,14.95
2018-12-20T08:51:17.968Z,17.69
2018-12-20T08:57:12.874Z,19.78
2018-12-20T09:03:07.909Z,32.32
2018-12-20T09:09:02.879Z,30.62
2018-12-20T09:14:57.907Z,79.29
2018-12-20T09:20:52.957Z,46.05
2018-12-20T09:26:47.897Z,21.03
2018-12-20T09:32:42.927Z,23.29
2018-12-20T09:38:37.889Z,22.41
2018-12-20T09:44:32.968Z,23.33
2018-12-20T09:50:27.963Z,27.29
2018-12-20T09:56:22.908Z,24.6
2018-12-20T10:02:17.906Z,35.19
2018-12-20T10:08:12.909Z,28.11
2018-12-20T10:14:07.933Z,28.51
2018-12-20T10:20:02.967Z,25.85
2018-12-20T10:25:57.942Z,26.37
2018-12-20T10:31:52.973Z,36.86
2018-12-20T10:37:47.925Z,23.11
2018-12-20T10:43:42.937Z,22.05
2018-12-20T10:49:37.945Z,24.51
2018-12-20T10:55:32.964Z,27.36
2018-12-20T11:01:27.929Z,41.97
2018-12-20T11:07:22.985Z,24.48
2018-12-20T11:13:17.967Z,24.5
2018-12-20T11:19:12.998Z,19.49
2018-12-20T11:25:07.987Z,24.36
2018-12-20T11:31:02.967Z,15.17
2018-12-20T11:36:57.975Z,14.35
2018-12-20T11:42:53.070Z,14.05
2018-12-20T11:48:47.971Z,17.04
2018-12-20T11:54:42.987Z,14.92
2018-12-20T12:00:37.980Z,12.14
2018-12-20T12:06:32.981Z,13.36
2018-12-20T12:12:27.994Z,10.79
2018-12-20T12:18:23.002Z,21.2
2018-12-20T12:24:18.009Z,15.52
2018-12-20T12:30:12.989Z,12.71
2018-12-20T12:36:07.993Z,12.2
2018-12-20T12:42:02.995Z,10.27
2018-12-20T12:48:03.080Z,11.15
2018-12-20T12:53:53.061Z,11.58
2018-12-20T12:59:48.019Z,11.52
2018-12-20T13:05:43.054Z,15.98
2018-12-20T13:11:38.003Z,11.84
2018-12-20T13:17:33.035Z,8.58
2018-12-20T13:23:28.068Z,12.07
2018-12-20T13:29:23.072Z,8.92
2018-12-20T13:35:18.045Z,7.75
2018-12-20T13:41:13.046Z,6.23
2018-12-20T13:47:08.057Z,4.04
2018-12-20T13:53:03.083Z,3.87
2018-12-20T13:59:03.326Z,4.43
2018-12-20T14:04:53.057Z,5.4
2018-12-20T14:10:48.062Z,5.03
2018-12-20T14:16:43.067Z,3.47
2018-12-20T14:22:38.073Z,3.2
2018-12-20T14:28:33.073Z,3.53
2018-12-20T14:34:28.065Z,1.95
2018-12-20T14:40:23.100Z,3.83
2018-12-20T14:46:18.064Z,4.31
2018-12-20T14:52:13.077Z,3.33
2018-12-20T14:58:08.094Z,7.36
2018-12-20T15:04:03.075Z,5.85
2018-12-20T15:09:58.129Z,8.61
2018-12-20T15:15:53.134Z,11.29
2018-12-20T15:21:48.093Z,18.95
2018-12-20T15:27:43.095Z,13.63
2018-12-20T15:33:38.119Z,8.65
2018-12-20T15:39:33.106Z,11.45
2018-12-20T15:45:28.114Z,8.18
2018-12-20T15:51:23.159Z,7.24
2018-12-20T15:57:18.123Z,6
2018-12-20T16:03:13.106Z,10.07
2018-12-20T16:09:08.143Z,14.29
2018-12-20T16:15:03.159Z,16.03
2018-12-20T16:20:58.135Z,20.85
2018-12-20T16:26:53.169Z,17.84
2018-12-20T16:32:48.180Z,19.05
2018-12-20T16:38:43.151Z,20.47
2018-12-20T16:44:38.130Z,24.16
2018-12-20T16:50:33.210Z,20.02
2018-12-20T16:56:28.142Z,19.14
2018-12-20T17:02:23.142Z,26.96
2018-12-20T17:08:18.160Z,27.92
2018-12-20T17:14:13.202Z,37.4
2018-12-20T17:20:08.146Z,39.37
2018-12-20T17:26:03.163Z,30.57
2018-12-20T17:31:58.213Z,39.16
2018-12-20T17:37:53.193Z,35.42
2018-12-20T17:43:48.219Z,65.33
2018-12-20T17:49:43.170Z,87.42
2018-12-20T17:55:44.624Z,38.39
2018-12-20T18:01:33.197Z,34.67
2018-12-20T18:07:28.189Z,42.4
2018-12-20T18:13:23.203Z,40.63
2018-12-20T18:19:18.215Z,9.42
2018-12-20T18:25:13.265Z,34.27
2018-12-20T18:31:08.203Z,30.14
2018-12-20T18:37:03.239Z,32.31
2018-12-20T18:42:58.303Z,34.47
2018-12-20T18:48:53.312Z,30.61
2018-12-20T18:54:48.233Z,34.74
2018-12-20T19:00:43.262Z,48.6
2018-12-20T19:06:38.254Z,40.06
2018-12-20T19:12:33.273Z,61.4
2018-12-20T19:18:28.223Z,41.55
2018-12-20T19:24:23.226Z,34.37
2018-12-20T19:30:18.231Z,33.2
2018-12-20T19:36:13.238Z,31.52
2018-12-20T19:42:08.259Z,32.11
2018-12-20T19:48:03.294Z,33.26
2018-12-20T19:53:58.235Z,31.9
2018-12-20T19:59:53.269Z,32.29
2018-12-20T20:05:48.293Z,35.98
2018-12-20T20:11:43.302Z,36.71
2018-12-20T20:17:38.356Z,31.48
2018-12-20T20:23:33.280Z,36.2
2018-12-20T20:29:28.365Z,43.67
2018-12-20T20:35:23.274Z,35.06
2018-12-20T20:41:18.290Z,32.08
2018-12-20T20:47:13.282Z,28.02
2018-12-20T20:53:08.320Z,31.8
2018-12-20T20:59:03.304Z,29.98
2018-12-20T21:04:58.337Z,34.33
2018-12-20T21:10:53.332Z,30.19
2018-12-20T21:16:48.344Z,26.84
2018-12-20T21:22:43.311Z,29.38
2018-12-20T21:28:38.310Z,24.91
2018-12-20T21:34:33.359Z,26.94
2018-12-20T21:40:28.311Z,22.66
2018-12-20T21:46:23.368Z,23.39
2018-12-20T21:52:18.335Z,19.92
2018-12-20T21:58:13.419Z,28.05
2018-12-20T22:04:08.350Z,35.08
2018-12-20T22:10:03.326Z,29.5
2018-12-20T22:15:58.348Z,23.23
2018-12-20T22:21:53.342Z,32.72
2018-12-20T22:27:48.361Z,37.19
2018-12-20T22:33:43.343Z,24.38
2018-12-20T22:39:38.343Z,28.04
2018-12-20T22:45:33.391Z,28.27
2018-12-20T22:51:28.362Z,26.08
2018-12-20T22:57:23.357Z,23.55
2018-12-20T23:03:18.364Z,23.38
2018-12-20T23:09:13.357Z,38.28
2018-12-20T23:15:08.365Z,26.09
2018-12-20T23:21:04.983Z,26.74
2018-12-20T23:26:58.393Z,29.78
2018-12-20T23:32:53.389Z,20.1
2018-12-20T23:38:48.389Z,26.11
2018-12-20T23:44:43.405Z,23.79
2018-12-20T23:50:38.396Z,22.92
2018-12-20T23:56:33.380Z,21.46
